sensor_id;sensor_type;location;lat;lon;timestamp;P1;durP1;ratioP1;P2;durP2;ratioP2
1206;SDS011;593;53.184;8.216;2022-10-22T00:01:05;9.97;;;8.17;;
1206;SDS011;593;53.184;8.216;2022-10-22T00:03:30;14.00;;;7.40;;
1206;SDS011;593;53.184;8.216;2022-10-22T00:05:56;7.30;;;6.60;;
1206;SDS011;593;53.184;8.216;2022-10-22T00:08:21;8.10;;;7.30;;
1206;SDS011;593;53.184;8.216;2022-10-22T00:10:47;8.70;;;7.80;;
1206;SDS011;593;53.184;8.216;2022-10-22T00:13:12;9.90;;;7.90;;
1206;SDS011;593;53.184;8.216;2022-10-22T00:15:38;12.30;;;8.23;;
1206;SDS011;593;53.184;8.216;2022-10-22T00:18:03;8.17;;;7.30;;
1206;SDS011;593;53.184;8.216;2022-10-22T00:20:29;10.10;;;8.90;;
1206;SDS011;593;53.184;8.216;2022-10-22T00:22:54;10.83;;;9.63;;
1206;SDS011;593;53.184;8.216;2022-10-22T00:25:20;12.13;;;10.07;;
1206;SDS011;593;53.184;8.216;2022-10-22T00:27:45;10.60;;;9.07;;
1206;SDS011;593;53.184;8.216;2022-10-22T00:30:10;11.60;;;10.23;;
1206;SDS011;593;53.184;8.216;2022-10-22T00:32:36;9.17;;;8.17;;
1206;SDS011;593;53.184;8.216;2022-10-22T00:35:01;9.80;;;8.43;;
1206;SDS011;593;53.184;8.216;2022-10-22T00:37:27;10.87;;;8.97;;
1206;SDS011;593;53.184;8.216;2022-10-22T00:39:54;9.90;;;8.90;;
1206;SDS011;593;53.184;8.216;2022-10-22T00:42:21;10.37;;;8.63;;
1206;SDS011;593;53.184;8.216;2022-10-22T00:44:59;8.20;;;7.40;;
1206;SDS011;593;53.184;8.216;2022-10-22T00:50:27;7.80;;;7.10;;
1206;SDS011;593;53.184;8.216;2022-10-22T00:52:57;8.60;;;7.07;;
1206;SDS011;593;53.184;8.216;2022-10-22T00:55:25;8.20;;;6.40;;
1206;SDS011;593;53.184;8.216;2022-10-22T00:57:53;6.80;;;6.10;;
1206;SDS011;593;53.184;8.216;2022-10-22T01:00:20;7.57;;;6.70;;
1206;SDS011;593;53.184;8.216;2022-10-22T01:02:46;7.33;;;6.40;;
1206;SDS011;593;53.184;8.216;2022-10-22T01:05:13;6.37;;;5.77;;
1206;SDS011;593;53.184;8.216;2022-10-22T01:07:49;6.47;;;6.00;;
1206;SDS011;593;53.184;8.216;2022-10-22T01:12:56;7.07;;;6.47;;
1206;SDS011;593;53.184;8.216;2022-10-22T01:15:27;8.00;;;6.70;;
1206;SDS011;593;53.184;8.216;2022-10-22T01:18:03;7.33;;;6.50;;
1206;SDS011;593;53.184;8.216;2022-10-22T01:28:56;9.20;;;6.87;;
1206;SDS011;593;53.184;8.216;2022-10-22T01:31:28;11.87;;;8.37;;
1206;SDS011;593;53.184;8.216;2022-10-22T01:33:58;9.77;;;8.33;;
1206;SDS011;593;53.184;8.216;2022-10-22T01:36:25;9.13;;;7.70;;
1206;SDS011;593;53.184;8.216;2022-10-22T01:38:53;8.07;;;7.27;;
1206;SDS011;593;53.184;8.216;2022-10-22T01:41:20;7.43;;;6.73;;
1206;SDS011;593;53.184;8.216;2022-10-22T01:43:46;7.90;;;7.10;;
1206;SDS011;593;53.184;8.216;2022-10-22T01:46:11;7.87;;;6.30;;
1206;SDS011;593;53.184;8.216;2022-10-22T01:49:00;7.83;;;7.03;;
1206;SDS011;593;53.184;8.216;2022-10-22T01:54:19;6.90;;;6.00;;
1206;SDS011;593;53.184;8.216;2022-10-22T01:59:31;7.07;;;6.47;;
1206;SDS011;593;53.184;8.216;2022-10-22T02:02:19;6.33;;;5.63;;
1206;SDS011;593;53.184;8.216;2022-10-22T02:04:48;7.73;;;5.77;;
1206;SDS011;593;53.184;8.216;2022-10-22T02:07:19;5.70;;;5.30;;
1206;SDS011;593;53.184;8.216;2022-10-22T02:09:47;5.83;;;5.33;;
1206;SDS011;593;53.184;8.216;2022-10-22T02:12:14;6.17;;;5.57;;
1206;SDS011;593;53.184;8.216;2022-10-22T02:14:42;6.67;;;6.10;;
1206;SDS011;593;53.184;8.216;2022-10-22T02:17:10;6.30;;;5.50;;
1206;SDS011;593;53.184;8.216;2022-10-22T02:19:51;6.43;;;5.80;;
1206;SDS011;593;53.184;8.216;2022-10-22T02:22:20;5.53;;;5.03;;
1206;SDS011;593;53.184;8.216;2022-10-22T02:24:45;6.73;;;6.13;;
1206;SDS011;593;53.184;8.216;2022-10-22T02:27:20;6.60;;;6.00;;
1206;SDS011;593;53.184;8.216;2022-10-22T02:30:00;7.60;;;6.90;;
1206;SDS011;593;53.184;8.216;2022-10-22T02:32:55;7.10;;;6.40;;
1206;SDS011;593;53.184;8.216;2022-10-22T02:35:27;8.45;;;6.22;;
1206;SDS011;593;53.184;8.216;2022-10-22T02:37:54;8.33;;;7.53;;
1206;SDS011;593;53.184;8.216;2022-10-22T02:40:21;6.90;;;6.20;;
1206;SDS011;593;53.184;8.216;2022-10-22T02:42:48;7.30;;;6.60;;
1206;SDS011;593;53.184;8.216;2022-10-22T02:45:14;7.33;;;6.60;;
1206;SDS011;593;53.184;8.216;2022-10-22T02:47:41;7.37;;;6.77;;
1206;SDS011;593;53.184;8.216;2022-10-22T02:50:06;5.90;;;5.03;;
1206;SDS011;593;53.184;8.216;2022-10-22T02:52:32;9.63;;;5.30;;
1206;SDS011;593;53.184;8.216;2022-10-22T02:54:57;6.73;;;6.13;;
1206;SDS011;593;53.184;8.216;2022-10-22T02:57:23;6.97;;;6.33;;
1206;SDS011;593;53.184;8.216;2022-10-22T02:59:48;6.83;;;6.17;;
1206;SDS011;593;53.184;8.216;2022-10-22T03:02:13;6.63;;;6.03;;
1206;SDS011;593;53.184;8.216;2022-10-22T03:04:39;6.60;;;6.00;;
1206;SDS011;593;53.184;8.216;2022-10-22T03:07:04;6.43;;;5.83;;
1206;SDS011;593;53.184;8.216;2022-10-22T03:09:29;6.90;;;6.23;;
1206;SDS011;593;53.184;8.216;2022-10-22T03:11:55;7.50;;;6.80;;
1206;SDS011;593;53.184;8.216;2022-10-22T03:14:20;6.70;;;6.10;;
1206;SDS011;593;53.184;8.216;2022-10-22T03:16:46;7.60;;;6.73;;
1206;SDS011;593;53.184;8.216;2022-10-22T03:19:11;7.80;;;7.10;;
1206;SDS011;593;53.184;8.216;2022-10-22T03:21:38;10.63;;;7.40;;
1206;SDS011;593;53.184;8.216;2022-10-22T03:24:10;8.97;;;8.17;;
1206;SDS011;593;53.184;8.216;2022-10-22T03:26:40;7.17;;;6.47;;
1206;SDS011;593;53.184;8.216;2022-10-22T03:29:09;8.77;;;7.97;;
1206;SDS011;593;53.184;8.216;2022-10-22T03:31:36;8.43;;;7.20;;
1206;SDS011;593;53.184;8.216;2022-10-22T03:34:02;8.30;;;7.37;;
1206;SDS011;593;53.184;8.216;2022-10-22T03:36:27;8.10;;;7.37;;
1206;SDS011;593;53.184;8.216;2022-10-22T03:38:52;9.87;;;8.20;;
1206;SDS011;593;53.184;8.216;2022-10-22T03:41:18;8.30;;;7.43;;
1206;SDS011;593;53.184;8.216;2022-10-22T03:43:43;7.67;;;6.87;;
1206;SDS011;593;53.184;8.216;2022-10-22T03:46:13;11.43;;;8.93;;
1206;SDS011;593;53.184;8.216;2022-10-22T03:48:39;8.80;;;7.93;;
1206;SDS011;593;53.184;8.216;2022-10-22T03:51:04;7.90;;;7.20;;
1206;SDS011;593;53.184;8.216;2022-10-22T03:53:30;10.37;;;8.20;;
1206;SDS011;593;53.184;8.216;2022-10-22T03:55:55;9.97;;;8.47;;
1206;SDS011;593;53.184;8.216;2022-10-22T03:58:20;9.70;;;8.50;;
1206;SDS011;593;53.184;8.216;2022-10-22T04:00:46;9.30;;;8.20;;
1206;SDS011;593;53.184;8.216;2022-10-22T04:03:11;9.77;;;8.30;;
1206;SDS011;593;53.184;8.216;2022-10-22T04:05:36;9.03;;;7.73;;
1206;SDS011;593;53.184;8.216;2022-10-22T04:08:02;9.23;;;8.43;;
1206;SDS011;593;53.184;8.216;2022-10-22T04:10:27;9.90;;;8.90;;
1206;SDS011;593;53.184;8.216;2022-10-22T04:12:52;9.53;;;8.63;;
1206;SDS011;593;53.184;8.216;2022-10-22T04:15:18;10.27;;;8.80;;
1206;SDS011;593;53.184;8.216;2022-10-22T04:17:43;11.03;;;8.33;;
1206;SDS011;593;53.184;8.216;2022-10-22T04:20:09;10.67;;;9.13;;
1206;SDS011;593;53.184;8.216;2022-10-22T04:22:34;10.97;;;9.13;;
1206;SDS011;593;53.184;8.216;2022-10-22T04:25:00;10.43;;;8.13;;
1206;SDS011;593;53.184;8.216;2022-10-22T04:27:32;10.43;;;9.37;;
1206;SDS011;593;53.184;8.216;2022-10-22T04:29:58;11.53;;;9.07;;
1206;SDS011;593;53.184;8.216;2022-10-22T04:32:24;10.87;;;8.67;;
1206;SDS011;593;53.184;8.216;2022-10-22T04:34:50;10.17;;;9.03;;
1206;SDS011;593;53.184;8.216;2022-10-22T04:37:16;9.90;;;8.60;;
1206;SDS011;593;53.184;8.216;2022-10-22T04:39:41;10.07;;;8.40;;
1206;SDS011;593;53.184;8.216;2022-10-22T04:42:06;10.90;;;8.30;;
1206;SDS011;593;53.184;8.216;2022-10-22T04:44:32;8.60;;;7.70;;
1206;SDS011;593;53.184;8.216;2022-10-22T04:46:57;11.00;;;9.37;;
1206;SDS011;593;53.184;8.216;2022-10-22T04:49:22;8.50;;;7.70;;
1206;SDS011;593;53.184;8.216;2022-10-22T04:51:47;8.80;;;8.00;;
1206;SDS011;593;53.184;8.216;2022-10-22T04:54:13;8.07;;;7.37;;
1206;SDS011;593;53.184;8.216;2022-10-22T04:56:38;7.03;;;6.43;;
1206;SDS011;593;53.184;8.216;2022-10-22T04:59:04;7.40;;;6.80;;
1206;SDS011;593;53.184;8.216;2022-10-22T05:01:35;6.93;;;6.23;;
1206;SDS011;593;53.184;8.216;2022-10-22T05:04:02;6.33;;;5.83;;
1206;SDS011;593;53.184;8.216;2022-10-22T05:06:30;6.40;;;5.83;;
1206;SDS011;593;53.184;8.216;2022-10-22T05:08:58;5.70;;;5.10;;
1206;SDS011;593;53.184;8.216;2022-10-22T05:11:26;4.45;;;4.15;;
1206;SDS011;593;53.184;8.216;2022-10-22T05:13:55;4.10;;;3.83;;
1206;SDS011;593;53.184;8.216;2022-10-22T05:16:22;5.30;;;4.90;;
1206;SDS011;593;53.184;8.216;2022-10-22T05:18:47;5.93;;;5.43;;
1206;SDS011;593;53.184;8.216;2022-10-22T05:21:17;5.93;;;5.50;;
1206;SDS011;593;53.184;8.216;2022-10-22T05:23:44;8.63;;;6.97;;
1206;SDS011;593;53.184;8.216;2022-10-22T05:26:13;7.40;;;6.80;;
1206;SDS011;593;53.184;8.216;2022-10-22T05:28:40;8.90;;;7.17;;
1206;SDS011;593;53.184;8.216;2022-10-22T05:31:06;8.33;;;7.53;;
1206;SDS011;593;53.184;8.216;2022-10-22T05:33:34;9.18;;;6.93;;
1206;SDS011;593;53.184;8.216;2022-10-22T05:36:00;8.60;;;7.80;;
1206;SDS011;593;53.184;8.216;2022-10-22T05:38:26;7.97;;;7.17;;
1206;SDS011;593;53.184;8.216;2022-10-22T05:41:02;8.07;;;7.20;;
1206;SDS011;593;53.184;8.216;2022-10-22T05:43:33;8.23;;;7.43;;
1206;SDS011;593;53.184;8.216;2022-10-22T05:46:03;9.47;;;8.67;;
1206;SDS011;593;53.184;8.216;2022-10-22T05:48:39;8.27;;;7.33;;
1206;SDS011;593;53.184;8.216;2022-10-22T05:51:06;8.30;;;7.50;;
1206;SDS011;593;53.184;8.216;2022-10-22T05:53:35;9.63;;;8.70;;
1206;SDS011;593;53.184;8.216;2022-10-22T05:56:03;9.50;;;8.50;;
1206;SDS011;593;53.184;8.216;2022-10-22T05:58:33;9.07;;;7.68;;
1206;SDS011;593;53.184;8.216;2022-10-22T06:01:02;8.30;;;7.50;;
1206;SDS011;593;53.184;8.216;2022-10-22T06:03:29;7.43;;;6.47;;
1206;SDS011;593;53.184;8.216;2022-10-22T06:05:56;10.15;;;7.43;;
1206;SDS011;593;53.184;8.216;2022-10-22T06:08:24;11.50;;;7.83;;
1206;SDS011;593;53.184;8.216;2022-10-22T06:10:49;9.10;;;8.20;;
1206;SDS011;593;53.184;8.216;2022-10-22T06:13:14;12.10;;;8.40;;
1206;SDS011;593;53.184;8.216;2022-10-22T06:15:40;8.13;;;7.30;;
1206;SDS011;593;53.184;8.216;2022-10-22T06:18:05;9.10;;;8.20;;
1206;SDS011;593;53.184;8.216;2022-10-22T06:20:32;8.70;;;7.00;;
1206;SDS011;593;53.184;8.216;2022-10-22T06:22:58;8.65;;;7.78;;
1206;SDS011;593;53.184;8.216;2022-10-22T06:25:23;8.10;;;7.00;;
1206;SDS011;593;53.184;8.216;2022-10-22T06:27:49;10.80;;;7.67;;
1206;SDS011;593;53.184;8.216;2022-10-22T06:30:15;9.68;;;8.13;;
1206;SDS011;593;53.184;8.216;2022-10-22T06:32:40;12.70;;;7.90;;
1206;SDS011;593;53.184;8.216;2022-10-22T06:35:06;8.10;;;7.13;;
1206;SDS011;593;53.184;8.216;2022-10-22T06:37:31;7.90;;;7.10;;
1206;SDS011;593;53.184;8.216;2022-10-22T06:39:57;8.37;;;7.57;;
1206;SDS011;593;53.184;8.216;2022-10-22T06:42:22;7.67;;;6.90;;
1206;SDS011;593;53.184;8.216;2022-10-22T06:44:47;8.13;;;7.33;;
1206;SDS011;593;53.184;8.216;2022-10-22T06:47:13;8.23;;;7.13;;
1206;SDS011;593;53.184;8.216;2022-10-22T06:49:38;7.43;;;6.73;;
1206;SDS011;593;53.184;8.216;2022-10-22T06:52:03;9.27;;;7.83;;
1206;SDS011;593;53.184;8.216;2022-10-22T06:54:29;8.90;;;7.20;;
1206;SDS011;593;53.184;8.216;2022-10-22T06:56:54;9.20;;;7.80;;
1206;SDS011;593;53.184;8.216;2022-10-22T06:59:20;9.73;;;8.73;;
1206;SDS011;593;53.184;8.216;2022-10-22T07:01:45;11.73;;;8.27;;
1206;SDS011;593;53.184;8.216;2022-10-22T07:04:10;9.07;;;8.20;;
1206;SDS011;593;53.184;8.216;2022-10-22T07:06:36;10.70;;;8.90;;
1206;SDS011;593;53.184;8.216;2022-10-22T07:09:01;13.10;;;9.90;;
1206;SDS011;593;53.184;8.216;2022-10-22T07:11:28;9.97;;;8.80;;
1206;SDS011;593;53.184;8.216;2022-10-22T07:14:07;11.73;;;8.90;;
1206;SDS011;593;53.184;8.216;2022-10-22T07:16:32;11.43;;;9.60;;
1206;SDS011;593;53.184;8.216;2022-10-22T07:18:58;10.80;;;9.77;;
1206;SDS011;593;53.184;8.216;2022-10-22T07:21:24;12.43;;;11.17;;
1206;SDS011;593;53.184;8.216;2022-10-22T07:23:50;10.90;;;9.63;;
1206;SDS011;593;53.184;8.216;2022-10-22T07:26:15;14.47;;;10.20;;
1206;SDS011;593;53.184;8.216;2022-10-22T07:28:41;12.53;;;10.50;;
1206;SDS011;593;53.184;8.216;2022-10-22T07:31:08;14.83;;;11.23;;
1206;SDS011;593;53.184;8.216;2022-10-22T07:33:35;10.67;;;9.20;;
1206;SDS011;593;53.184;8.216;2022-10-22T07:36:02;12.50;;;9.87;;
1206;SDS011;593;53.184;8.216;2022-10-22T07:38:30;13.87;;;10.13;;
1206;SDS011;593;53.184;8.216;2022-10-22T07:40:56;13.20;;;10.30;;
1206;SDS011;593;53.184;8.216;2022-10-22T07:43:22;11.40;;;10.20;;
1206;SDS011;593;53.184;8.216;2022-10-22T07:45:48;11.70;;;10.57;;
1206;SDS011;593;53.184;8.216;2022-10-22T07:48:13;14.80;;;10.97;;
1206;SDS011;593;53.184;8.216;2022-10-22T07:50:39;11.47;;;10.27;;
1206;SDS011;593;53.184;8.216;2022-10-22T07:53:04;10.87;;;9.73;;
1206;SDS011;593;53.184;8.216;2022-10-22T07:55:29;15.97;;;11.33;;
1206;SDS011;593;53.184;8.216;2022-10-22T07:57:55;13.27;;;10.27;;
1206;SDS011;593;53.184;8.216;2022-10-22T08:00:20;13.10;;;11.00;;
1206;SDS011;593;53.184;8.216;2022-10-22T08:02:46;11.37;;;10.13;;
1206;SDS011;593;53.184;8.216;2022-10-22T08:05:11;14.73;;;11.77;;
1206;SDS011;593;53.184;8.216;2022-10-22T08:07:37;12.43;;;10.60;;
1206;SDS011;593;53.184;8.216;2022-10-22T08:10:03;12.03;;;10.13;;
1206;SDS011;593;53.184;8.216;2022-10-22T08:12:29;10.07;;;8.90;;
1206;SDS011;593;53.184;8.216;2022-10-22T08:14:54;12.57;;;10.17;;
1206;SDS011;593;53.184;8.216;2022-10-22T08:17:19;12.57;;;9.43;;
1206;SDS011;593;53.184;8.216;2022-10-22T08:19:45;12.57;;;9.80;;
1206;SDS011;593;53.184;8.216;2022-10-22T08:22:10;11.70;;;10.23;;
1206;SDS011;593;53.184;8.216;2022-10-22T08:24:35;12.30;;;10.40;;
1206;SDS011;593;53.184;8.216;2022-10-22T08:27:01;12.77;;;10.90;;
1206;SDS011;593;53.184;8.216;2022-10-22T08:29:26;14.60;;;10.33;;
1206;SDS011;593;53.184;8.216;2022-10-22T08:31:52;12.77;;;10.43;;
1206;SDS011;593;53.184;8.216;2022-10-22T08:34:18;16.50;;;11.47;;
1206;SDS011;593;53.184;8.216;2022-10-22T08:36:44;15.67;;;11.00;;
1206;SDS011;593;53.184;8.216;2022-10-22T08:39:09;14.70;;;10.70;;
1206;SDS011;593;53.184;8.216;2022-10-22T08:41:36;13.83;;;9.70;;
1206;SDS011;593;53.184;8.216;2022-10-22T08:44:28;12.20;;;10.57;;
1206;SDS011;593;53.184;8.216;2022-10-22T08:47:20;12.17;;;9.13;;
1206;SDS011;593;53.184;8.216;2022-10-22T08:50:02;13.00;;;10.27;;
1206;SDS011;593;53.184;8.216;2022-10-22T08:52:28;14.03;;;9.30;;
1206;SDS011;593;53.184;8.216;2022-10-22T08:54:57;12.00;;;9.57;;
1206;SDS011;593;53.184;8.216;2022-10-22T09:00:19;13.73;;;8.93;;
1206;SDS011;593;53.184;8.216;2022-10-22T09:03:04;9.60;;;8.67;;
1206;SDS011;593;53.184;8.216;2022-10-22T09:08:51;9.90;;;8.10;;
1206;SDS011;593;53.184;8.216;2022-10-22T09:13:56;9.20;;;7.77;;
1206;SDS011;593;53.184;8.216;2022-10-22T09:24:48;11.20;;;8.07;;
1206;SDS011;593;53.184;8.216;2022-10-22T09:27:18;9.50;;;6.97;;
1206;SDS011;593;53.184;8.216;2022-10-22T09:29:47;7.73;;;6.50;;
1206;SDS011;593;53.184;8.216;2022-10-22T09:32:13;10.90;;;7.43;;
1206;SDS011;593;53.184;8.216;2022-10-22T09:34:40;6.23;;;5.60;;
1206;SDS011;593;53.184;8.216;2022-10-22T09:37:08;8.77;;;6.57;;
1206;SDS011;593;53.184;8.216;2022-10-22T09:39:38;6.90;;;6.30;;
1206;SDS011;593;53.184;8.216;2022-10-22T09:42:06;7.40;;;5.37;;
1206;SDS011;593;53.184;8.216;2022-10-22T09:44:32;6.70;;;6.10;;
1206;SDS011;593;53.184;8.216;2022-10-22T09:47:02;8.00;;;5.63;;
1206;SDS011;593;53.184;8.216;2022-10-22T09:49:32;8.20;;;6.03;;
1206;SDS011;593;53.184;8.216;2022-10-22T09:51:59;9.37;;;6.17;;
1206;SDS011;593;53.184;8.216;2022-10-22T09:57:13;9.93;;;5.47;;
1206;SDS011;593;53.184;8.216;2022-10-22T09:59:46;5.43;;;4.93;;
1206;SDS011;593;53.184;8.216;2022-10-22T10:02:14;5.67;;;4.10;;
1206;SDS011;593;53.184;8.216;2022-10-22T10:04:55;8.07;;;5.23;;
1206;SDS011;593;53.184;8.216;2022-10-22T10:07:25;9.73;;;5.90;;
1206;SDS011;593;53.184;8.216;2022-10-22T10:09:54;5.20;;;4.40;;
1206;SDS011;593;53.184;8.216;2022-10-22T10:12:35;7.53;;;5.57;;
1206;SDS011;593;53.184;8.216;2022-10-22T10:15:23;6.63;;;4.50;;
1206;SDS011;593;53.184;8.216;2022-10-22T10:21:08;8.13;;;5.70;;
1206;SDS011;593;53.184;8.216;2022-10-22T10:23:54;6.40;;;5.63;;
1206;SDS011;593;53.184;8.216;2022-10-22T10:26:36;7.37;;;6.77;;
1206;SDS011;593;53.184;8.216;2022-10-22T10:32:21;6.93;;;6.33;;
1206;SDS011;593;53.184;8.216;2022-10-22T10:45:56;6.00;;;5.40;;
1206;SDS011;593;53.184;8.216;2022-10-22T10:56:41;7.30;;;5.13;;
1206;SDS011;593;53.184;8.216;2022-10-22T11:07:37;8.53;;;4.33;;
1206;SDS011;593;53.184;8.216;2022-10-22T11:10:40;5.73;;;4.57;;
1206;SDS011;593;53.184;8.216;2022-10-22T11:13:02;5.67;;;4.47;;
1206;SDS011;593;53.184;8.216;2022-10-22T11:15:38;4.07;;;3.63;;
1206;SDS011;593;53.184;8.216;2022-10-22T11:21:03;4.67;;;4.30;;
1206;SDS011;593;53.184;8.216;2022-10-22T11:23:37;5.87;;;4.27;;
1206;SDS011;593;53.184;8.216;2022-10-22T11:26:10;6.90;;;5.00;;
1206;SDS011;593;53.184;8.216;2022-10-22T11:28:42;4.37;;;3.97;;
1206;SDS011;593;53.184;8.216;2022-10-22T11:31:15;5.97;;;4.20;;
1206;SDS011;593;53.184;8.216;2022-10-22T11:33:45;4.17;;;3.77;;
1206;SDS011;593;53.184;8.216;2022-10-22T11:36:17;4.50;;;3.90;;
1206;SDS011;593;53.184;8.216;2022-10-22T11:38:46;6.57;;;4.20;;
1206;SDS011;593;53.184;8.216;2022-10-22T11:41:13;5.40;;;3.60;;
1206;SDS011;593;53.184;8.216;2022-10-22T11:48:44;4.30;;;3.90;;
1206;SDS011;593;53.184;8.216;2022-10-22T11:51:37;6.10;;;4.80;;
1206;SDS011;593;53.184;8.216;2022-10-22T11:59:39;4.77;;;4.33;;
1206;SDS011;593;53.184;8.216;2022-10-22T12:07:52;6.33;;;5.20;;
1206;SDS011;593;53.184;8.216;2022-10-22T12:10:21;12.20;;;5.37;;
1206;SDS011;593;53.184;8.216;2022-10-22T12:12:55;7.50;;;4.50;;
1206;SDS011;593;53.184;8.216;2022-10-22T12:15:23;11.03;;;5.50;;
1206;SDS011;593;53.184;8.216;2022-10-22T12:18:01;5.70;;;5.10;;
1206;SDS011;593;53.184;8.216;2022-10-22T12:20:29;9.43;;;5.93;;
1206;SDS011;593;53.184;8.216;2022-10-22T12:22:56;9.63;;;5.73;;
1206;SDS011;593;53.184;8.216;2022-10-22T12:25:28;8.30;;;5.57;;
1206;SDS011;593;53.184;8.216;2022-10-22T12:27:57;5.60;;;4.80;;
1206;SDS011;593;53.184;8.216;2022-10-22T12:30:28;5.30;;;4.20;;
1206;SDS011;593;53.184;8.216;2022-10-22T12:32:57;6.53;;;4.30;;
1206;SDS011;593;53.184;8.216;2022-10-22T12:35:28;4.80;;;4.17;;
1206;SDS011;593;53.184;8.216;2022-10-22T12:37:57;8.90;;;4.10;;
1206;SDS011;593;53.184;8.216;2022-10-22T12:40:26;5.00;;;2.90;;
1206;SDS011;593;53.184;8.216;2022-10-22T12:43:06;6.63;;;4.20;;
1206;SDS011;593;53.184;8.216;2022-10-22T12:45:35;5.43;;;4.00;;
1206;SDS011;593;53.184;8.216;2022-10-22T12:48:03;5.20;;;3.70;;
1206;SDS011;593;53.184;8.216;2022-10-22T12:50:35;4.90;;;4.00;;
1206;SDS011;593;53.184;8.216;2022-10-22T12:53:05;5.93;;;3.97;;
1206;SDS011;593;53.184;8.216;2022-10-22T12:55:38;3.53;;;3.20;;
1206;SDS011;593;53.184;8.216;2022-10-22T12:58:05;6.10;;;3.93;;
1206;SDS011;593;53.184;8.216;2022-10-22T13:00:31;4.77;;;4.27;;
1206;SDS011;593;53.184;8.216;2022-10-22T13:02:58;5.00;;;3.87;;
1206;SDS011;593;53.184;8.216;2022-10-22T13:05:32;5.90;;;4.07;;
1206;SDS011;593;53.184;8.216;2022-10-22T13:08:06;3.80;;;3.50;;
1206;SDS011;593;53.184;8.216;2022-10-22T13:10:35;6.40;;;4.30;;
1206;SDS011;593;53.184;8.216;2022-10-22T13:13:02;6.23;;;2.90;;
1206;SDS011;593;53.184;8.216;2022-10-22T13:20:29;3.60;;;2.93;;
1206;SDS011;593;53.184;8.216;2022-10-22T13:22:56;4.93;;;3.80;;
1206;SDS011;593;53.184;8.216;2022-10-22T13:25:42;5.50;;;3.93;;
1206;SDS011;593;53.184;8.216;2022-10-22T13:30:36;3.47;;;3.17;;
1206;SDS011;593;53.184;8.216;2022-10-22T13:33:03;3.67;;;3.37;;
1206;SDS011;593;53.184;8.216;2022-10-22T13:35:32;3.57;;;3.23;;
1206;SDS011;593;53.184;8.216;2022-10-22T13:38:00;6.50;;;3.40;;
1206;SDS011;593;53.184;8.216;2022-10-22T13:40:26;3.83;;;3.30;;
1206;SDS011;593;53.184;8.216;2022-10-22T13:42:51;3.83;;;2.53;;
1206;SDS011;593;53.184;8.216;2022-10-22T13:45:17;4.70;;;2.87;;
1206;SDS011;593;53.184;8.216;2022-10-22T13:47:50;4.33;;;3.40;;
1206;SDS011;593;53.184;8.216;2022-10-22T13:50:17;4.50;;;2.90;;
1206;SDS011;593;53.184;8.216;2022-10-22T13:52:45;5.93;;;2.80;;
1206;SDS011;593;53.184;8.216;2022-10-22T13:57:42;3.40;;;2.90;;
1206;SDS011;593;53.184;8.216;2022-10-22T14:00:15;3.70;;;2.57;;
1206;SDS011;593;53.184;8.216;2022-10-22T14:02:43;9.30;;;2.63;;
1206;SDS011;593;53.184;8.216;2022-10-22T14:05:11;4.00;;;3.00;;
1206;SDS011;593;53.184;8.216;2022-10-22T14:07:38;3.93;;;2.60;;
1206;SDS011;593;53.184;8.216;2022-10-22T14:10:37;3.60;;;2.90;;
1206;SDS011;593;53.184;8.216;2022-10-22T14:12:55;2.93;;;2.73;;
1206;SDS011;593;53.184;8.216;2022-10-22T14:15:22;4.33;;;2.90;;
1206;SDS011;593;53.184;8.216;2022-10-22T14:17:55;3.73;;;2.37;;
1206;SDS011;593;53.184;8.216;2022-10-22T14:20:22;3.73;;;2.60;;
1206;SDS011;593;53.184;8.216;2022-10-22T14:22:50;3.20;;;2.70;;
1206;SDS011;593;53.184;8.216;2022-10-22T14:25:17;3.73;;;2.80;;
1206;SDS011;593;53.184;8.216;2022-10-22T14:27:44;6.23;;;3.30;;
1206;SDS011;593;53.184;8.216;2022-10-22T14:30:14;3.23;;;3.00;;
1206;SDS011;593;53.184;8.216;2022-10-22T14:32:41;5.77;;;3.30;;
1206;SDS011;593;53.184;8.216;2022-10-22T14:35:08;3.27;;;2.67;;
1206;SDS011;593;53.184;8.216;2022-10-22T14:37:35;3.17;;;2.97;;
1206;SDS011;593;53.184;8.216;2022-10-22T14:40:01;3.97;;;2.67;;
1206;SDS011;593;53.184;8.216;2022-10-22T14:42:26;3.53;;;2.67;;
1206;SDS011;593;53.184;8.216;2022-10-22T14:44:53;3.80;;;3.40;;
1206;SDS011;593;53.184;8.216;2022-10-22T14:47:18;3.47;;;2.67;;
1206;SDS011;593;53.184;8.216;2022-10-22T14:49:43;3.00;;;2.70;;
1206;SDS011;593;53.184;8.216;2022-10-22T14:52:09;7.10;;;3.03;;
1206;SDS011;593;53.184;8.216;2022-10-22T14:54:34;4.87;;;3.30;;
1206;SDS011;593;53.184;8.216;2022-10-22T14:57:02;3.37;;;2.70;;
1206;SDS011;593;53.184;8.216;2022-10-22T14:59:28;5.20;;;3.40;;
1206;SDS011;593;53.184;8.216;2022-10-22T15:01:54;5.07;;;3.30;;
1206;SDS011;593;53.184;8.216;2022-10-22T15:04:20;3.57;;;3.03;;
1206;SDS011;593;53.184;8.216;2022-10-22T15:06:45;4.90;;;3.33;;
1206;SDS011;593;53.184;8.216;2022-10-22T15:09:10;3.50;;;3.00;;
1206;SDS011;593;53.184;8.216;2022-10-22T15:11:36;3.57;;;3.27;;
1206;SDS011;593;53.184;8.216;2022-10-22T15:14:01;3.40;;;3.20;;
1206;SDS011;593;53.184;8.216;2022-10-22T15:16:26;5.80;;;3.30;;
1206;SDS011;593;53.184;8.216;2022-10-22T15:18:52;4.23;;;3.27;;
1206;SDS011;593;53.184;8.216;2022-10-22T15:21:18;4.43;;;3.07;;
1206;SDS011;593;53.184;8.216;2022-10-22T15:23:45;4.33;;;3.87;;
1206;SDS011;593;53.184;8.216;2022-10-22T15:26:11;5.93;;;3.70;;
1206;SDS011;593;53.184;8.216;2022-10-22T15:28:37;4.40;;;3.23;;
1206;SDS011;593;53.184;8.216;2022-10-22T15:31:04;8.50;;;3.40;;
1206;SDS011;593;53.184;8.216;2022-10-22T15:33:29;5.67;;;4.00;;
1206;SDS011;593;53.184;8.216;2022-10-22T15:35:55;4.23;;;3.40;;
1206;SDS011;593;53.184;8.216;2022-10-22T15:38:21;4.07;;;3.70;;
1206;SDS011;593;53.184;8.216;2022-10-22T15:41:02;3.53;;;3.33;;
1206;SDS011;593;53.184;8.216;2022-10-22T15:43:29;4.50;;;3.70;;
1206;SDS011;593;53.184;8.216;2022-10-22T15:46:08;4.23;;;3.83;;
1206;SDS011;593;53.184;8.216;2022-10-22T15:48:38;6.40;;;4.23;;
1206;SDS011;593;53.184;8.216;2022-10-22T15:51:10;5.20;;;4.50;;
1206;SDS011;593;53.184;8.216;2022-10-22T15:53:40;4.83;;;4.00;;
1206;SDS011;593;53.184;8.216;2022-10-22T15:56:07;4.93;;;4.30;;
1206;SDS011;593;53.184;8.216;2022-10-22T15:58:33;5.07;;;3.90;;
1206;SDS011;593;53.184;8.216;2022-10-22T16:01:03;5.00;;;4.60;;
1206;SDS011;593;53.184;8.216;2022-10-22T16:03:30;4.93;;;3.93;;
1206;SDS011;593;53.184;8.216;2022-10-22T16:05:55;4.13;;;3.77;;
1206;SDS011;593;53.184;8.216;2022-10-22T16:08:21;6.57;;;4.00;;
1206;SDS011;593;53.184;8.216;2022-10-22T16:10:46;5.40;;;3.73;;
1206;SDS011;593;53.184;8.216;2022-10-22T16:13:12;6.63;;;4.57;;
1206;SDS011;593;53.184;8.216;2022-10-22T16:15:38;8.17;;;4.87;;
1206;SDS011;593;53.184;8.216;2022-10-22T16:18:03;5.37;;;4.53;;
1206;SDS011;593;53.184;8.216;2022-10-22T16:20:29;4.60;;;4.27;;
1206;SDS011;593;53.184;8.216;2022-10-22T16:22:54;4.53;;;3.90;;
1206;SDS011;593;53.184;8.216;2022-10-22T16:25:19;7.30;;;4.93;;
1206;SDS011;593;53.184;8.216;2022-10-22T16:27:47;6.00;;;4.47;;
1206;SDS011;593;53.184;8.216;2022-10-22T16:30:14;4.53;;;4.10;;
1206;SDS011;593;53.184;8.216;2022-10-22T16:32:40;7.47;;;4.27;;
1206;SDS011;593;53.184;8.216;2022-10-22T16:35:06;7.30;;;5.20;;
1206;SDS011;593;53.184;8.216;2022-10-22T16:37:32;4.43;;;3.97;;
1206;SDS011;593;53.184;8.216;2022-10-22T16:39:58;9.43;;;4.70;;
1206;SDS011;593;53.184;8.216;2022-10-22T16:42:23;7.80;;;5.67;;
1206;SDS011;593;53.184;8.216;2022-10-22T16:44:48;5.20;;;4.70;;
1206;SDS011;593;53.184;8.216;2022-10-22T16:47:14;8.60;;;4.77;;
1206;SDS011;593;53.184;8.216;2022-10-22T16:49:39;7.27;;;4.77;;
1206;SDS011;593;53.184;8.216;2022-10-22T16:52:04;6.27;;;4.97;;
1206;SDS011;593;53.184;8.216;2022-10-22T16:54:30;5.70;;;5.20;;
1206;SDS011;593;53.184;8.216;2022-10-22T16:56:55;5.20;;;4.70;;
1206;SDS011;593;53.184;8.216;2022-10-22T16:59:20;7.93;;;4.17;;
1206;SDS011;593;53.184;8.216;2022-10-22T17:01:46;7.33;;;4.63;;
1206;SDS011;593;53.184;8.216;2022-10-22T17:04:11;5.27;;;4.33;;
1206;SDS011;593;53.184;8.216;2022-10-22T17:06:37;4.90;;;4.40;;
1206;SDS011;593;53.184;8.216;2022-10-22T17:09:02;4.80;;;4.40;;
1206;SDS011;593;53.184;8.216;2022-10-22T17:11:28;5.07;;;4.67;;
1206;SDS011;593;53.184;8.216;2022-10-22T17:13:58;8.67;;;4.40;;